Flight Track Log - Related Links

Times and Time Zones

All times are in EDT time to prevent confusion due to time zone crossing. See the EGF2839 flight status page for this flight to view local times or setup timezone preferences in your user account.

Time Position Orientation Groundspeed Altitude Reporting Facility
EDT Latitude Longitude Course Direction KTS MPH feet Rate Location/Type
Fri 04:16:35 PM 32.9167 -97.0500 357° North 146 168 1,400  Level Dallas / Fort Worth TRACON
Fri 04:17:41 PM 32.9667 -97.0500 360° North 193 222 3,500 1,810 Climbing Dallas / Fort Worth TRACON
Fri 04:18:41 PM 33.0333 -97.0500 360° North 215 247 5,200 2,021 Climbing Dallas / Fort Worth TRACON
Fri 04:19:00 PM 32.8313 -96.8037 10° North  Level FlightAware Approximate
Fri 04:20:00 PM 32.9471 -96.8000 North  Level FlightAware Approximate
Fri 04:20:51 PM 33.1500 -96.9992 20° North 382 440 9,900  Level Fort Worth Center
Fri 04:21:00 PM 33.0631 -96.8000 North  Level FlightAware Approximate
Fri 04:21:51 PM 33.2250 -96.9664 20° North 272 313 11,600  Level Fort Worth Center
Fri 04:22:00 PM 33.1790 -96.8070 357° North  Level FlightAware Approximate
Fri 04:22:51 PM 33.2811 -96.9239 32° Northeast 260 299 12,100  Level Fort Worth Center
Fri 04:23:51 PM 33.3686 -96.8711 27° Northeast 301 346 13,600 1,438 Climbing Fort Worth Center
Fri 04:24:52 PM 33.4478 -96.8283 24° Northeast 306 352 15,000 1,400 Climbing Fort Worth Center
Fri 04:25:51 PM 33.5164 -96.7806 30° Northeast 306 352 16,400 1,462 Climbing Fort Worth Center
Fri 04:26:51 PM 33.6039 -96.7275 27° Northeast 306 352 17,900 1,250 Climbing Fort Worth Center
Fri 04:27:51 PM 33.6725 -96.6822 29° Northeast 306 352 18,900 1,250 Climbing Fort Worth Center
Fri 04:28:51 PM 33.7597 -96.6264 28° Northeast 311 358 20,400 1,388 Climbing Fort Worth Center
Fri 04:29:52 PM 33.8408 -96.5758 27° Northeast 311 358 21,700 1,250 Climbing Fort Worth Center
Fri 04:30:51 PM 33.9197 -96.5225 29° Northeast 311 358 22,900 1,210 Climbing Fort Worth Center
Fri 04:31:51 PM 34.0028 -96.4664 29° Northeast 321 369 24,100 1,190 Climbing Fort Worth Center
Fri 04:32:52 PM 34.0839 -96.4131 29° Northeast 326 375 25,300 1,150 Climbing Fort Worth Center
Fri 04:33:51 PM 34.1667 -96.3467 34° Northeast 337 388 26,400 1,059 Climbing Fort Worth Center
Fri 04:34:51 PM 34.2475 -96.2778 35° Northeast 347 399 27,400 950 Climbing Fort Worth Center
Fri 04:35:51 PM 34.3283 -96.2114 34° Northeast 347 399 28,300 800 Climbing Fort Worth Center
Fri 04:36:51 PM 34.4111 -96.1447 34° Northeast 352 405 29,000 350 Climbing Fort Worth Center
Fri 04:37:51 PM 34.5000 -96.0706 35° Northeast 358 412 29,000  Level Fort Worth Center
Fri 04:38:51 PM 34.5931 -95.9933 34° Northeast 375 432 29,000  Level Fort Worth Center
Fri 04:39:52 PM 34.6903 -95.9158 33° Northeast 397 457 29,000  Level Fort Worth Center
Fri 04:40:51 PM 34.7894 -95.8333 34° Northeast 415 478 29,000  Level Fort Worth Center
Fri 04:41:51 PM 34.8883 -95.7428 37° Northeast 428 493 29,000  Level Fort Worth Center
Fri 04:43:56 PM 35.0733 -95.5253 44° Northeast 438 504 29,000  Level Memphis Center
Fri 04:44:57 PM 35.1633 -95.4217 43° Northeast 432 497 29,000  Level Memphis Center
Fri 04:45:56 PM 35.2553 -95.3128 44° Northeast 437 503 29,000  Level Memphis Center
Fri 04:46:56 PM 35.3428 -95.2086 44° Northeast 442 509 29,000  Level Memphis Center
Fri 04:47:56 PM 35.4344 -95.0992 44° Northeast 448 516 29,000  Level Memphis Center
Fri 04:48:56 PM 35.5242 -94.9894 45° Northeast 448 516 29,000  Level Memphis Center
Fri 04:49:56 PM 35.6156 -94.8847 43° Northeast 448 516 29,000  Level Memphis Center
Fri 04:50:56 PM 35.7050 -94.7747 45° Northeast 448 516 29,000  Level Memphis Center
Fri 04:51:57 PM 35.7964 -94.6644 44° Northeast 448 516 29,000  Level Memphis Center
Fri 04:52:56 PM 35.8878 -94.5564 44° Northeast 448 516 29,000  Level Memphis Center
Fri 04:53:56 PM 35.9789 -94.4481 44° Northeast 448 516 29,000  Level Memphis Center
Fri 04:54:56 PM 36.0700 -94.3397 44° Northeast 448 516 29,000  Level Memphis Center
Fri 04:56:43 PM 36.2231 -94.1489 45° Northeast 450 518 29,000  Level Kansas City Center
Fri 04:57:45 PM 36.3200 -94.0353 43° Northeast 453 521 29,000  Level Kansas City Center
Fri 04:58:47 PM 36.4067 -93.9356 43° Northeast 451 519 29,000  Level Kansas City Center
Fri 04:59:49 PM 36.4989 -93.8300 43° Northeast 452 520 29,000  Level Kansas City Center
Fri 05:00:51 PM 36.5961 -93.7175 43° Northeast 450 518 29,000  Level Kansas City Center
Fri 05:01:53 PM 36.6869 -93.6108 43° Northeast 449 517 29,000  Level Kansas City Center
Fri 05:02:55 PM 36.7786 -93.5036 43° Northeast 450 518 29,000  Level Kansas City Center
Fri 05:03:57 PM 36.8853 -93.3789 43° Northeast 449 517 29,000  Level Kansas City Center
Fri 05:04:59 PM 36.9767 -93.2703 43° Northeast 450 518 29,000  Level Kansas City Center
Fri 05:06:01 PM 37.0669 -93.1633 43° Northeast 447 514 29,000  Level Kansas City Center
Fri 05:07:03 PM 37.1567 -93.0572 43° Northeast 444 511 29,000  Level Kansas City Center
Fri 05:08:05 PM 37.2456 -92.9506 44° Northeast 442 509 29,000  Level Kansas City Center
Fri 05:09:07 PM 37.3347 -92.8433 44° Northeast 442 509 29,000  Level Kansas City Center
Fri 05:10:09 PM 37.4397 -92.7147 44° Northeast 439 505 29,000  Level Kansas City Center
Fri 05:11:11 PM 37.5286 -92.6075 44° Northeast 440 506 29,000  Level Kansas City Center
Fri 05:12:13 PM 37.6167 -92.5022 43° Northeast 439 505 29,000  Level Kansas City Center
Fri 05:13:15 PM 37.7033 -92.3956 44° Northeast 441 507 29,000  Level Kansas City Center
Fri 05:14:17 PM 37.7922 -92.2881 44° Northeast 443 510 29,000  Level Kansas City Center
Fri 05:15:19 PM 37.8814 -92.1825 43° Northeast 441 507 29,000  Level Kansas City Center
Fri 05:16:21 PM 37.9817 -92.0553 45° Northeast 436 502 29,000  Level Kansas City Center
Fri 05:17:23 PM 38.0700 -91.9469 44° Northeast 440 506 29,000  Level Kansas City Center
Fri 05:18:25 PM 38.1592 -91.8386 44° Northeast 442 509 29,000  Level Kansas City Center
Fri 05:20:00 PM 38.2835 -91.6756 46° Northeast  Level FlightAware Approximate
Fri 05:20:29 PM 38.3361 -91.6189 46° Northeast 442 509 29,000  Level Kansas City Center
Fri 05:21:31 PM 38.4411 -91.4861 45° Northeast 441 507 29,000  Level Kansas City Center
Fri 05:22:33 PM 38.5303 -91.3753 44° Northeast 442 509 29,000  Level Kansas City Center
Fri 05:23:35 PM 38.6192 -91.2606 45° Northeast 447 514 29,000  Level Kansas City Center
Fri 05:24:37 PM 38.7075 -91.1497 44° Northeast 447 514 29,000  Level Kansas City Center
Fri 05:25:39 PM 38.7964 -91.0372 45° Northeast 447 514 29,000  Level Kansas City Center
Fri 05:26:41 PM 38.8858 -90.9222 45° Northeast 449 517 29,000  Level Kansas City Center
Fri 05:27:43 PM 38.9753 -90.8083 45° Northeast 450 518 29,000 387 Level Kansas City Center
Fri 05:28:45 PM 39.0642 -90.6947 45° Northeast 449 517 29,800 968 Climbing Kansas City Center
Fri 05:29:47 PM 39.1653 -90.5639 45° Northeast 433 498 31,000 581 Climbing Kansas City Center
Fri 05:30:49 PM 39.2519 -90.4522 45° Northeast 435 501 31,000  Level Kansas City Center
Fri 05:31:52 PM 39.3397 -90.3367 45° Northeast 446 513 31,000  Level Kansas City Center
Fri 05:32:54 PM 39.4269 -90.2242 45° Northeast 445 512 31,000  Level Kansas City Center
Fri 05:33:56 PM 39.5117 -90.1100 46° Northeast 442 509 31,000  Level Kansas City Center
Fri 05:34:58 PM 39.5983 -89.9961 45° Northeast 443 510 31,000  Level Kansas City Center
Fri 05:36:00 PM 39.6861 -89.8814 45° Northeast 446 513 31,000  Level Kansas City Center
Fri 05:37:02 PM 39.7769 -89.7619 45° Northeast 446 513 31,000  Level Kansas City Center
Fri 05:38:04 PM 39.8811 -89.6211 46° Northeast 449 517 31,000  Level Kansas City Center
Fri 05:38:37 PM 39.9167 -89.5808 41° Northeast 446 513 31,000  Level Chicago Center
Fri 05:39:39 PM 40.0239 -89.4425 45° Northeast 453 521 31,000  Level Chicago Center
Fri 05:40:41 PM 40.1122 -89.3281 45° Northeast 451 519 31,000  Level Chicago Center
Fri 05:41:43 PM 40.2003 -89.2131 45° Northeast 451 519 31,000  Level Chicago Center
Fri 05:42:45 PM 40.2889 -89.0983 45° Northeast 450 518 31,000  Level Chicago Center
Fri 05:43:47 PM 40.3781 -88.9825 45° Northeast 452 520 31,000  Level Chicago Center
Fri 05:44:49 PM 40.4672 -88.8661 45° Northeast 452 520 31,000  Level Chicago Center
Fri 05:45:51 PM 40.5678 -88.7333 45° Northeast 451 519 31,000  Level Chicago Center
Fri 05:46:53 PM 40.6564 -88.6172 45° Northeast 451 519 31,000  Level Chicago Center
Fri 05:47:55 PM 40.7456 -88.5006 45° Northeast 453 521 31,000  Level Chicago Center
Fri 05:48:59 PM 40.8517 -88.3592 45° Northeast 453 521 31,000  Level Chicago Center
Fri 05:49:59 PM 40.9392 -88.2417 45° Northeast 454 522 31,000  Level Chicago Center
Fri 05:51:01 PM 41.0281 -88.1231 45° Northeast 456 525 31,000  Level Chicago Center
Fri 05:52:03 PM 41.1161 -88.0044 45° Northeast 457 526 31,000  Level Chicago Center
Fri 05:53:05 PM 41.2211 -87.8636 45° Northeast 456 525 31,000  Level Chicago Center
Fri 05:54:07 PM 41.3075 -87.7442 46° Northeast 457 526 31,000  Level Chicago Center
Fri 05:55:09 PM 41.3958 -87.6242 46° Northeast 461 531 31,000 -145 Level Chicago Center
Fri 05:56:11 PM 41.4844 -87.5050 45° Northeast 460 529 30,700 -581 Descending Chicago Center
Fri 05:57:13 PM 41.5728 -87.3831 46° Northeast 460 529 29,800 -968 Descending Chicago Center
Fri 05:58:15 PM 41.6806 -87.2356 46° Northeast 467 537 28,700 -960 Descending Chicago Center
Fri 05:59:18 PM 41.7742 -87.1203 43° Northeast 462 532 27,800 -864 Descending Chicago Center
Fri 06:00:20 PM 41.8792 -87.0178 36° Northeast 467 537 26,900 -919 Descending Chicago Center
Fri 06:01:22 PM 41.9725 -86.9003 43° Northeast 465 535 25,900 -919 Descending Chicago Center
Fri 06:02:24 PM 42.0589 -86.7717 48° Northeast 465 535 25,000 -1,597 Descending Chicago Center
Fri 06:03:26 PM 42.1144 -86.6047 66° East 441 507 22,600 -2,129 Descending Chicago Center
Fri 06:04:28 PM 42.1611 -86.4567 67° East 430 495 20,600 -1,452 Descending Chicago Center
Fri 06:05:30 PM 42.2058 -86.3139 67° East 416 479 19,600 -1,403 Descending Chicago Center
Fri 06:06:32 PM 42.2750 -86.1933 52° Northeast 415 478 17,700 -2,516 Descending Chicago Center
Fri 06:07:34 PM 42.3761 -86.0867 38° Northeast 411 473 14,400 -3,000 Descending Chicago Center
Fri 06:08:36 PM 42.4597 -85.9967 38° Northeast 392 451 11,500 -1,694 Descending Chicago Center
Fri 06:09:38 PM 42.5431 -85.9292 31° Northeast 357 411 10,900 -1,113 Descending Chicago Center
Fri 06:10:40 PM 42.6264 -85.8581 32° Northeast 306 352 9,200 -1,935 Descending Chicago Center
Fri 06:11:42 PM 42.6908 -85.8019 33° Northeast 282 325 6,900 -2,226 Descending Chicago Center

Login

Don't have an account? Register now (free) for customized features, flight alerts, and more!